createdAt,value
2018-03-29T00:01:08.523Z,92.40
2018-03-29T00:03:36.809Z,92.30
2018-03-29T00:06:05.239Z,92.50
2018-03-29T00:08:34.347Z,92.50
2018-03-29T00:11:02.605Z,92.40
2018-03-29T00:13:30.854Z,92.30
2018-03-29T00:15:59.147Z,92.40
2018-03-29T00:18:27.420Z,92.40
2018-03-29T00:20:55.807Z,92.20
2018-03-29T00:23:24.048Z,92.10
2018-03-29T00:25:52.479Z,91.90
2018-03-29T00:28:21.509Z,91.90
2018-03-29T00:30:49.780Z,91.90
2018-03-29T00:33:18.083Z,91.80
2018-03-29T00:35:46.360Z,91.90
2018-03-29T00:38:14.616Z,92.00
2018-03-29T00:40:42.885Z,91.80
2018-03-29T00:43:11.156Z,91.90
2018-03-29T00:45:39.414Z,91.80
2018-03-29T00:48:08.679Z,91.40
2018-03-29T00:50:36.957Z,91.60
2018-03-29T00:53:17.236Z,91.60
2018-03-29T00:55:45.477Z,91.50
2018-03-29T00:58:13.755Z,91.50
2018-03-29T01:00:42.011Z,91.30
2018-03-29T01:03:10.310Z,91.30
2018-03-29T01:05:38.644Z,91.40
2018-03-29T01:08:06.988Z,91.30
2018-03-29T01:10:36.026Z,91.30
2018-03-29T01:13:04.307Z,91.30
2018-03-29T01:15:32.650Z,91.20
2018-03-29T01:18:00.919Z,91.30
2018-03-29T01:20:29.209Z,91.20
2018-03-29T01:22:57.463Z,91.30
2018-03-29T01:25:26.493Z,91.30
2018-03-29T01:27:54.747Z,91.30
2018-03-29T01:30:23.035Z,91.40
2018-03-29T01:32:51.295Z,91.40
2018-03-29T01:35:19.665Z,91.50
2018-03-29T01:37:47.920Z,91.50
2018-03-29T01:40:16.996Z,91.60
2018-03-29T01:42:45.207Z,91.60
2018-03-29T01:45:13.467Z,91.60
2018-03-29T01:47:42.483Z,91.50
2018-03-29T01:50:10.765Z,91.50
2018-03-29T01:52:39.011Z,91.50
2018-03-29T01:55:08.064Z,91.30
2018-03-29T01:57:36.333Z,91.30
2018-03-29T02:00:05.495Z,91.30
2018-03-29T02:02:33.773Z,91.20
2018-03-29T02:05:02.029Z,91.30
2018-03-29T02:07:31.059Z,91.30
2018-03-29T02:09:59.320Z,91.30
2018-03-29T02:12:27.673Z,91.20
2018-03-29T02:14:55.947Z,91.20
2018-03-29T02:17:24.989Z,91.10
2018-03-29T02:19:53.235Z,91.10
2018-03-29T02:22:21.604Z,91.20
2018-03-29T02:24:49.869Z,91.10
2018-03-29T02:27:18.129Z,91.20
2018-03-29T02:29:47.150Z,91.30
2018-03-29T02:32:15.428Z,91.30
2018-03-29T02:34:43.694Z,91.30
2018-03-29T02:37:12.074Z,91.30
2018-03-29T02:39:40.321Z,91.40
2018-03-29T02:42:09.363Z,91.30
2018-03-29T02:44:37.623Z,91.20
2018-03-29T02:47:05.883Z,91.40
2018-03-29T02:49:34.135Z,91.50
2018-03-29T02:52:03.192Z,91.70
2018-03-29T02:54:31.452Z,91.70
2018-03-29T02:56:59.699Z,91.50
2018-03-29T02:59:28.045Z,91.60
2018-03-29T03:01:57.267Z,92.10
2018-03-29T03:04:26.305Z,91.70
2018-03-29T03:06:55.352Z,91.40
2018-03-29T03:09:24.479Z,91.40
2018-03-29T03:11:52.720Z,91.30
2018-03-29T03:14:21.006Z,91.40
2018-03-29T03:16:49.266Z,91.50
2018-03-29T03:19:18.290Z,92.00
2018-03-29T03:21:46.550Z,92.00
2018-03-29T03:24:14.814Z,92.20
2018-03-29T03:26:43.832Z,92.40
2018-03-29T03:29:12.100Z,92.40
2018-03-29T03:31:40.352Z,92.30
2018-03-29T03:34:09.395Z,92.20
2018-03-29T03:36:37.668Z,92.20
2018-03-29T03:39:05.920Z,91.90
2018-03-29T03:41:34.172Z,92.00
2018-03-29T03:44:02.463Z,92.00
2018-03-29T03:46:30.708Z,92.00
2018-03-29T03:48:59.736Z,92.00
2018-03-29T03:51:28.010Z,92.00
2018-03-29T03:53:56.255Z,92.10
2018-03-29T03:56:25.298Z,91.70
2018-03-29T03:58:53.543Z,91.70
2018-03-29T04:01:21.810Z,91.70
2018-03-29T04:03:50.064Z,91.70
2018-03-29T04:06:19.116Z,91.80
2018-03-29T04:08:47.460Z,91.80
2018-03-29T04:11:15.715Z,91.70
2018-03-29T04:13:44.760Z,91.70
2018-03-29T04:16:13.150Z,91.70
2018-03-29T04:18:41.407Z,91.80
2018-03-29T04:21:09.695Z,91.60
2018-03-29T04:23:37.947Z,91.60
2018-03-29T04:26:06.232Z,91.50
2018-03-29T04:28:34.471Z,91.40
2018-03-29T04:31:02.817Z,91.40
2018-03-29T04:33:31.139Z,91.40
2018-03-29T04:35:59.427Z,91.50
2018-03-29T04:38:27.683Z,91.50
2018-03-29T04:40:55.976Z,91.50
2018-03-29T04:43:24.263Z,91.40
2018-03-29T04:45:52.525Z,91.30
2018-03-29T04:48:20.783Z,91.20
2018-03-29T04:50:49.053Z,91.10
2018-03-29T04:53:17.438Z,91.10
2018-03-29T04:55:45.687Z,91.20
2018-03-29T04:58:14.741Z,90.90
2018-03-29T05:00:43.009Z,90.90
2018-03-29T05:03:11.267Z,91.30
2018-03-29T05:05:39.543Z,91.40
2018-03-29T05:08:07.837Z,91.50
2018-03-29T05:10:36.107Z,91.40
2018-03-29T05:13:04.409Z,91.30
2018-03-29T05:15:32.667Z,91.40
2018-03-29T05:18:00.942Z,91.30
2018-03-29T05:20:29.283Z,91.30
2018-03-29T05:22:57.563Z,91.10
2018-03-29T05:25:25.879Z,91.10
2018-03-29T05:27:54.155Z,91.20
2018-03-29T05:30:23.512Z,91.30
2018-03-29T05:32:51.827Z,91.30
2018-03-29T05:35:20.122Z,91.20
2018-03-29T05:37:49.157Z,91.00
2018-03-29T05:40:17.423Z,91.00
2018-03-29T05:42:45.824Z,91.00
2018-03-29T05:45:14.090Z,90.90
2018-03-29T05:47:42.347Z,91.00
2018-03-29T05:50:10.612Z,91.00
2018-03-29T05:52:38.878Z,91.10
2018-03-29T05:55:07.971Z,91.00
2018-03-29T05:57:37.022Z,91.00
2018-03-29T06:00:05.307Z,91.00
2018-03-29T06:02:33.596Z,91.00
2018-03-29T06:05:03.639Z,90.80
2018-03-29T06:07:32.028Z,90.90
2018-03-29T06:10:00.601Z,90.90
2018-03-29T06:12:28.953Z,90.80
2018-03-29T06:14:57.245Z,90.90
2018-03-29T06:17:26.256Z,90.70
2018-03-29T06:19:54.631Z,90.70
2018-03-29T06:22:23.029Z,90.70
2018-03-29T06:24:51.293Z,90.60
2018-03-29T06:27:19.546Z,90.80
2018-03-29T06:29:48.015Z,90.80
2018-03-29T06:32:17.052Z,91.10
2018-03-29T06:34:45.313Z,91.00
2018-03-29T06:37:13.584Z,91.30
2018-03-29T06:39:41.849Z,91.30
2018-03-29T06:42:10.135Z,91.30
2018-03-29T06:44:38.417Z,91.50
2018-03-29T06:47:06.668Z,91.50
2018-03-29T06:49:34.954Z,91.60
2018-03-29T06:52:03.229Z,91.60
2018-03-29T06:54:31.497Z,91.60
2018-03-29T06:56:59.813Z,91.70
2018-03-29T06:59:28.686Z,91.50
2018-03-29T07:01:56.930Z,91.60
2018-03-29T07:04:25.984Z,91.60
2018-03-29T07:06:54.295Z,91.50
2018-03-29T07:09:22.779Z,91.70
2018-03-29T07:11:51.061Z,91.80
2018-03-29T07:14:20.110Z,91.70
2018-03-29T07:16:48.446Z,91.60
2018-03-29T07:19:16.774Z,91.60
2018-03-29T07:21:46.537Z,91.50
2018-03-29T07:24:14.865Z,91.50
2018-03-29T07:26:43.115Z,91.50
2018-03-29T07:29:11.400Z,91.60
2018-03-29T07:31:39.882Z,91.50
2018-03-29T07:34:08.158Z,91.50
2018-03-29T07:36:36.663Z,91.50
2018-03-29T07:39:04.891Z,91.60
2018-03-29T07:41:33.151Z,91.50
2018-03-29T07:44:01.420Z,91.20
2018-03-29T07:46:29.703Z,91.20
2018-03-29T07:48:57.985Z,91.20
2018-03-29T07:51:26.257Z,91.10
2018-03-29T07:53:54.504Z,91.00
2018-03-29T07:56:22.776Z,91.00
2018-03-29T07:58:51.027Z,91.20
2018-03-29T08:01:20.116Z,91.20
2018-03-29T08:03:49.229Z,91.40
2018-03-29T08:06:17.484Z,91.20
2018-03-29T08:08:46.509Z,91.10
2018-03-29T08:11:14.803Z,91.10
2018-03-29T08:13:43.059Z,91.20
2018-03-29T08:16:11.483Z,91.10
2018-03-29T08:18:39.743Z,90.80
2018-03-29T08:21:08.003Z,90.70
2018-03-29T08:23:36.297Z,91.00
2018-03-29T08:26:04.585Z,90.40
2018-03-29T08:28:32.829Z,90.20
2018-03-29T08:31:01.148Z,90.00
2018-03-29T08:33:29.451Z,90.00
2018-03-29T08:35:57.705Z,90.20
2018-03-29T08:38:26.105Z,90.30
2018-03-29T08:40:55.142Z,90.30
2018-03-29T08:43:23.424Z,90.30
2018-03-29T08:45:51.685Z,90.20
2018-03-29T08:48:19.981Z,90.10
2018-03-29T08:50:48.250Z,89.40
2018-03-29T08:53:16.796Z,88.80
2018-03-29T08:55:45.075Z,89.00
2018-03-29T08:58:13.351Z,89.00
2018-03-29T09:00:41.721Z,88.10
2018-03-29T09:03:09.987Z,86.80
2018-03-29T09:05:39.015Z,85.50
2018-03-29T09:08:07.291Z,85.40
2018-03-29T09:10:35.554Z,86.20
2018-03-29T09:13:03.841Z,85.50
2018-03-29T09:15:32.099Z,85.40
2018-03-29T09:18:00.424Z,82.80
2018-03-29T09:20:28.692Z,83.30
2018-03-29T09:22:58.477Z,81.40
2018-03-29T09:25:26.722Z,81.40
2018-03-29T09:27:55.007Z,81.70
2018-03-29T09:30:23.284Z,81.90
2018-03-29T09:32:51.561Z,81.50
2018-03-29T09:35:19.875Z,81.90
2018-03-29T09:37:48.363Z,80.30
2018-03-29T09:40:16.623Z,78.50
2018-03-29T09:42:44.905Z,78.40
2018-03-29T09:45:13.212Z,77.80
2018-03-29T09:47:41.688Z,79.20
2018-03-29T09:50:10.717Z,78.50
2018-03-29T09:52:39.040Z,78.50
2018-03-29T09:55:07.363Z,79.90
2018-03-29T09:57:35.634Z,79.00
2018-03-29T10:00:03.878Z,79.40
2018-03-29T10:02:32.205Z,77.90
2018-03-29T10:05:00.613Z,76.00
2018-03-29T10:07:28.898Z,75.80
2018-03-29T10:09:57.949Z,73.70
2018-03-29T10:12:26.288Z,73.60
2018-03-29T10:14:54.599Z,73.80
2018-03-29T10:17:22.891Z,71.50
2018-03-29T10:19:51.144Z,71.70
2018-03-29T10:22:19.447Z,71.70
2018-03-29T10:24:47.710Z,70.10
2018-03-29T10:27:15.994Z,72.00
2018-03-29T10:29:44.261Z,71.80
2018-03-29T10:32:12.547Z,70.90
2018-03-29T10:34:40.904Z,71.80
2018-03-29T10:37:09.156Z,70.70
2018-03-29T10:39:37.427Z,69.50
2018-03-29T10:42:05.808Z,67.10
2018-03-29T10:44:34.133Z,68.50
2018-03-29T10:47:02.473Z,67.80
2018-03-29T10:49:30.727Z,67.50
2018-03-29T10:51:58.995Z,66.30
2018-03-29T10:54:27.452Z,67.10
2018-03-29T10:56:56.503Z,67.70
2018-03-29T10:59:24.955Z,67.60
2018-03-29T11:01:53.206Z,66.40
2018-03-29T11:04:21.503Z,67.50
2018-03-29T11:06:49.916Z,65.90
2018-03-29T11:09:18.195Z,65.40
2018-03-29T11:11:47.979Z,66.60
2018-03-29T11:14:16.266Z,66.50
2018-03-29T11:16:44.523Z,66.70
2018-03-29T11:19:12.935Z,63.80
2018-03-29T11:21:42.001Z,61.70
2018-03-29T11:24:10.267Z,61.60
2018-03-29T11:26:38.582Z,61.40
2018-03-29T11:29:06.911Z,63.50
2018-03-29T11:31:35.217Z,63.50
2018-03-29T11:34:03.496Z,64.50
2018-03-29T11:36:31.876Z,65.20
2018-03-29T11:39:00.349Z,65.30
2018-03-29T11:41:28.631Z,67.00
2018-03-29T11:43:56.891Z,70.10
2018-03-29T11:46:25.175Z,71.20
2018-03-29T11:48:53.551Z,69.70
2018-03-29T11:51:21.833Z,68.50
2018-03-29T11:56:24.797Z,69.70
2018-03-29T11:58:53.036Z,66.10
2018-03-29T12:01:21.308Z,68.10
2018-03-29T12:03:49.584Z,69.90
2018-03-29T12:06:17.884Z,71.60
2018-03-29T12:08:46.189Z,72.30
2018-03-29T12:11:14.534Z,74.80
2018-03-29T12:13:43.553Z,77.90
2018-03-29T12:16:11.836Z,77.80
2018-03-29T12:18:40.119Z,76.80
2018-03-29T12:21:08.406Z,77.50
2018-03-29T12:23:36.659Z,78.00
2018-03-29T12:26:04.919Z,76.80
2018-03-29T12:28:33.184Z,76.70
2018-03-29T12:31:02.261Z,73.40
2018-03-29T12:33:30.540Z,73.40
2018-03-29T12:35:59.035Z,72.70
2018-03-29T12:38:28.096Z,71.50
2018-03-29T12:40:56.402Z,71.40
2018-03-29T12:43:24.772Z,72.60
2018-03-29T12:45:53.029Z,73.40
2018-03-29T12:48:21.372Z,69.50
2018-03-29T12:50:49.566Z,69.00
2018-03-29T12:53:17.859Z,69.90
2018-03-29T12:55:46.143Z,68.50
2018-03-29T12:58:14.436Z,67.50
2018-03-29T13:00:43.465Z,66.30
2018-03-29T13:03:11.808Z,67.40
2018-03-29T13:05:40.859Z,66.70
2018-03-29T13:08:09.116Z,66.60
2018-03-29T13:10:37.368Z,64.10
2018-03-29T13:13:05.626Z,65.40
2018-03-29T13:15:33.936Z,64.20
2018-03-29T13:18:02.193Z,66.20
2018-03-29T13:20:30.643Z,66.90
2018-03-29T13:22:59.691Z,64.30
2018-03-29T13:25:27.979Z,64.30
2018-03-29T13:27:56.243Z,64.10
2018-03-29T13:30:25.347Z,64.00
2018-03-29T13:32:54.393Z,65.30
2018-03-29T13:35:23.448Z,64.40
2018-03-29T13:37:52.751Z,63.40
2018-03-29T13:40:21.363Z,63.90
2018-03-29T13:42:49.678Z,64.40
2018-03-29T13:45:17.958Z,65.10
2018-03-29T13:47:46.611Z,66.20
2018-03-29T13:50:14.979Z,66.60
2018-03-29T13:52:43.223Z,65.90
2018-03-29T13:55:12.440Z,66.60
2018-03-29T13:57:40.807Z,65.70
2018-03-29T14:00:09.829Z,70.40
2018-03-29T14:02:38.144Z,70.40
2018-03-29T14:05:06.428Z,68.50
2018-03-29T14:07:34.733Z,68.50
2018-03-29T14:10:03.024Z,69.40
2018-03-29T14:12:32.035Z,66.60
2018-03-29T14:15:00.752Z,64.70
2018-03-29T14:17:29.030Z,63.80
2018-03-29T14:19:58.182Z,65.00
2018-03-29T14:22:26.447Z,64.90
2018-03-29T14:24:54.880Z,61.40
2018-03-29T14:27:23.137Z,60.00
2018-03-29T14:29:51.401Z,60.90
2018-03-29T14:32:19.697Z,59.20
2018-03-29T14:34:47.987Z,60.70
2018-03-29T14:37:16.297Z,61.30
2018-03-29T14:39:44.543Z,61.50
2018-03-29T14:42:13.563Z,62.20
2018-03-29T14:44:41.841Z,62.20
2018-03-29T14:47:10.104Z,64.60
2018-03-29T14:49:38.423Z,62.00
2018-03-29T14:52:06.756Z,62.60
2018-03-29T14:54:35.866Z,60.00
2018-03-29T14:57:04.207Z,59.90
2018-03-29T14:59:32.568Z,59.90
2018-03-29T15:02:00.842Z,59.80
2018-03-29T15:04:29.183Z,56.50
2018-03-29T15:06:57.463Z,55.80
2018-03-29T15:09:25.838Z,54.40
2018-03-29T15:11:54.237Z,55.40
2018-03-29T15:14:22.520Z,52.70
2018-03-29T15:16:50.784Z,44.90
2018-03-29T15:19:19.132Z,43.90
2018-03-29T15:21:47.356Z,44.50
2018-03-29T15:24:15.636Z,45.30
2018-03-29T15:26:43.892Z,46.10
2018-03-29T15:29:12.187Z,46.50
2018-03-29T15:31:40.503Z,46.70
2018-03-29T15:34:08.795Z,46.90
2018-03-29T15:36:37.114Z,47.50
2018-03-29T15:39:05.356Z,46.60
2018-03-29T15:41:34.411Z,46.10
2018-03-29T15:44:02.797Z,46.70
2018-03-29T15:46:31.092Z,46.70
2018-03-29T15:48:59.362Z,48.10
2018-03-29T15:51:27.659Z,45.80
2018-03-29T15:53:55.943Z,46.70
2018-03-29T15:56:25.040Z,46.30
2018-03-29T15:58:53.300Z,46.20
2018-03-29T16:01:21.707Z,47.20
2018-03-29T16:03:50.775Z,48.70
2018-03-29T16:06:19.046Z,48.70
2018-03-29T16:08:47.466Z,47.00
2018-03-29T16:11:15.935Z,46.90
2018-03-29T16:13:44.966Z,46.60
2018-03-29T16:16:13.240Z,46.50
2018-03-29T16:18:41.543Z,46.20
2018-03-29T16:21:09.820Z,48.10
2018-03-29T16:23:38.863Z,46.90
2018-03-29T16:26:07.158Z,46.90
2018-03-29T16:28:35.392Z,47.40
2018-03-29T16:31:04.412Z,47.90
2018-03-29T16:33:32.807Z,48.00
2018-03-29T16:36:01.057Z,49.60
2018-03-29T16:38:29.338Z,49.50
2018-03-29T16:40:57.590Z,48.20
2018-03-29T16:43:27.393Z,47.40
2018-03-29T16:45:55.659Z,48.10
2018-03-29T16:48:23.924Z,47.90
2018-03-29T16:50:52.215Z,48.90
2018-03-29T16:53:21.292Z,49.50
2018-03-29T16:55:49.533Z,49.50
2018-03-29T16:58:17.806Z,49.60
2018-03-29T17:00:46.081Z,49.80
2018-03-29T17:03:14.383Z,49.00
2018-03-29T17:05:42.723Z,49.50
2018-03-29T17:08:10.956Z,48.80
2018-03-29T17:10:39.256Z,49.30
2018-03-29T17:13:07.510Z,49.50
2018-03-29T17:15:36.570Z,51.40
2018-03-29T17:18:04.845Z,51.30
2018-03-29T17:20:33.268Z,51.80
2018-03-29T17:23:02.361Z,52.20
2018-03-29T17:25:30.667Z,52.20
2018-03-29T17:27:58.954Z,51.90
2018-03-29T17:30:27.224Z,52.90
2018-03-29T17:32:55.480Z,53.90
2018-03-29T17:35:23.776Z,53.70
2018-03-29T17:37:52.186Z,52.60
2018-03-29T17:40:20.524Z,52.70
2018-03-29T17:42:48.872Z,52.90
2018-03-29T17:45:17.224Z,58.10
2018-03-29T17:47:46.288Z,61.20
2018-03-29T17:50:14.625Z,61.10
2018-03-29T17:52:42.900Z,62.20
2018-03-29T17:55:11.946Z,63.60
2018-03-29T17:57:40.372Z,63.50
2018-03-29T18:00:08.642Z,64.10
2018-03-29T18:02:37.734Z,65.80
2018-03-29T18:05:06.119Z,65.70
2018-03-29T18:07:34.460Z,66.00
2018-03-29T18:10:02.696Z,66.50
2018-03-29T18:12:30.995Z,66.80
2018-03-29T18:14:59.237Z,67.30
2018-03-29T18:17:27.518Z,68.00
2018-03-29T18:19:55.799Z,68.70
2018-03-29T18:22:24.079Z,69.50
2018-03-29T18:24:52.386Z,69.90
2018-03-29T18:27:20.926Z,70.50
2018-03-29T18:29:49.555Z,70.90
2018-03-29T18:32:17.839Z,71.30
2018-03-29T18:34:46.895Z,72.00
2018-03-29T18:37:15.173Z,71.90
2018-03-29T18:39:43.455Z,72.50
2018-03-29T18:42:11.710Z,72.80
2018-03-29T18:44:40.030Z,73.50
2018-03-29T18:47:09.256Z,73.60
2018-03-29T18:49:37.551Z,73.50
2018-03-29T18:52:06.565Z,73.70
2018-03-29T18:54:34.843Z,74.20
2018-03-29T18:57:03.341Z,74.60
2018-03-29T18:59:31.643Z,75.00
2018-03-29T19:02:00.662Z,76.10
2018-03-29T19:04:28.975Z,76.10
2018-03-29T19:06:57.259Z,76.70
2018-03-29T19:09:25.535Z,77.10
2018-03-29T19:11:53.829Z,77.40
2018-03-29T19:14:23.032Z,77.90
2018-03-29T19:16:52.043Z,78.30
2018-03-29T19:19:20.449Z,78.10
2018-03-29T19:21:48.731Z,78.50
2018-03-29T19:24:16.964Z,78.90
2018-03-29T19:26:45.234Z,79.00
2018-03-29T19:29:13.493Z,79.50
2018-03-29T19:31:42.527Z,80.10
2018-03-29T19:34:10.811Z,80.10
2018-03-29T19:36:39.136Z,80.10
2018-03-29T19:39:07.659Z,80.30
2018-03-29T19:41:35.980Z,80.60
2018-03-29T19:44:05.112Z,80.90
2018-03-29T19:46:33.517Z,80.70
2018-03-29T19:49:01.784Z,81.00
2018-03-29T19:51:30.095Z,81.10
2018-03-29T19:53:58.424Z,81.30
2018-03-29T19:56:26.831Z,81.40
2018-03-29T19:58:55.116Z,81.50
2018-03-29T20:01:23.408Z,81.50
2018-03-29T20:03:52.481Z,81.70
2018-03-29T20:06:20.749Z,81.50
2018-03-29T20:08:49.031Z,81.70
2018-03-29T20:11:17.294Z,82.10
2018-03-29T20:13:45.623Z,81.80
2018-03-29T20:16:14.671Z,80.30
2018-03-29T20:18:43.057Z,80.30
2018-03-29T20:21:11.311Z,79.00
2018-03-29T20:23:39.580Z,77.70
2018-03-29T20:26:07.850Z,77.10
2018-03-29T20:28:36.130Z,76.70
2018-03-29T20:31:04.450Z,76.30
2018-03-29T20:33:32.707Z,75.80
2018-03-29T20:36:00.953Z,75.50
2018-03-29T20:38:29.280Z,75.40
2018-03-29T20:40:57.548Z,75.50
2018-03-29T20:43:25.986Z,75.60
2018-03-29T20:45:54.268Z,75.40
2018-03-29T20:48:22.576Z,75.70
2018-03-29T20:50:50.842Z,75.90
2018-03-29T20:53:19.154Z,76.00
2018-03-29T20:55:48.183Z,76.30
2018-03-29T20:58:16.457Z,76.30
2018-03-29T21:00:44.734Z,76.50
2018-03-29T21:03:13.054Z,76.70
2018-03-29T21:05:41.300Z,76.70
2018-03-29T21:08:09.561Z,76.60
2018-03-29T21:10:37.815Z,76.80
2018-03-29T21:13:06.150Z,77.00
2018-03-29T21:15:34.428Z,76.80
2018-03-29T21:18:02.688Z,77.00
2018-03-29T21:20:30.999Z,77.30
2018-03-29T21:22:59.231Z,77.60
2018-03-29T21:25:27.528Z,77.60
2018-03-29T21:27:55.809Z,77.60
2018-03-29T21:30:24.839Z,78.40
2018-03-29T21:32:53.326Z,78.20
2018-03-29T21:35:21.668Z,78.40
2018-03-29T21:37:49.848Z,78.60
2018-03-29T21:40:18.207Z,78.90
2018-03-29T21:42:46.451Z,78.90
2018-03-29T21:45:14.755Z,79.20
2018-03-29T21:47:43.803Z,79.70
2018-03-29T21:50:12.094Z,79.60
2018-03-29T21:52:40.393Z,79.70
2018-03-29T21:55:09.429Z,80.10
2018-03-29T21:57:37.699Z,80.00
2018-03-29T22:00:07.807Z,80.10
2018-03-29T22:02:36.828Z,80.50
2018-03-29T22:05:05.067Z,80.50
2018-03-29T22:07:33.463Z,80.70
2018-03-29T22:10:01.740Z,81.00
2018-03-29T22:12:30.015Z,81.10
2018-03-29T22:14:58.297Z,81.10
2018-03-29T22:17:26.559Z,81.30
2018-03-29T22:19:54.943Z,81.40
2018-03-29T22:22:23.340Z,81.20
2018-03-29T22:24:51.591Z,81.20
2018-03-29T22:27:19.876Z,81.20
2018-03-29T22:29:48.179Z,81.30
2018-03-29T22:32:16.546Z,81.50
2018-03-29T22:34:44.803Z,81.40
2018-03-29T22:37:13.043Z,81.60
2018-03-29T22:39:42.111Z,81.90
2018-03-29T22:42:10.503Z,81.80
2018-03-29T22:44:39.551Z,82.00
2018-03-29T22:47:07.843Z,81.90
2018-03-29T22:49:36.108Z,81.90
2018-03-29T22:52:04.731Z,82.10
2018-03-29T22:54:33.779Z,82.60
2018-03-29T22:57:02.051Z,82.60
2018-03-29T22:59:30.333Z,82.50
2018-03-29T23:01:58.590Z,82.70
2018-03-29T23:04:26.998Z,82.90
2018-03-29T23:06:55.267Z,83.00
2018-03-29T23:09:24.470Z,83.10
2018-03-29T23:11:52.767Z,83.00
2018-03-29T23:14:21.059Z,83.20
2018-03-29T23:16:50.099Z,83.00
2018-03-29T23:19:18.452Z,82.90
2018-03-29T23:21:46.723Z,82.80
2018-03-29T23:24:15.011Z,82.80
2018-03-29T23:26:43.266Z,82.90
2018-03-29T23:29:11.707Z,83.80
2018-03-29T23:31:39.970Z,82.90
2018-03-29T23:34:08.244Z,82.70
2018-03-29T23:36:36.547Z,82.80
2018-03-29T23:39:05.599Z,82.80
2018-03-29T23:41:33.879Z,82.70
2018-03-29T23:44:02.176Z,82.50
2018-03-29T23:46:30.449Z,82.60
2018-03-29T23:48:58.816Z,82.00
2018-03-29T23:51:27.063Z,81.80
2018-03-29T23:53:55.336Z,81.50
2018-03-29T23:56:23.619Z,81.20
2018-03-29T23:58:51.911Z,81.20
